This is the latest recevied weather packets stored in our database for station/object SIILIN. If no packets are shown the sender has not sent any weather packets the latest 10 day(s).
| Time | Temp. | Humidity | Pressure | Rain* | Wind** | Luminosity | Snow |
|---|---|---|---|---|---|---|---|
| 1777589218 | 8.33° C | 77% | 1021.2 hPa | - | - | - | - |
| 1777588018 | 9.44° C | 69% | 1021.1 hPa | - | - | - | - |
| 1777586817 | 10° C | 68% | 1021.1 hPa | - | - | - | - |
| 1777585618 | 10° C | 67% | 1021.1 hPa | - | - | - | - |
| 1777584418 | 10.56° C | 65% | 1021.2 hPa | - | - | - | - |
| 1777583218 | 10.56° C | 65% | 1021.1 hPa | - | - | - | - |
| 1777582018 | 11.67° C | 63% | 1021 hPa | - | - | - | - |
| 1777580817 | 11.67° C | 62% | 1020.8 hPa | - | - | - | - |
| 1777579617 | 11.67° C | 61% | 1020.7 hPa | - | - | - | - |
| 1777578417 | 12.22° C | 62% | 1020.7 hPa | - | - | - | - |
| 1777577217 | 13.33° C | 56% | 1020.5 hPa | - | - | - | - |
| 1777576017 | 12.78° C | 59% | 1020.4 hPa | - | - | - | - |
| 1777574817 | 13.33° C | 56% | 1020.3 hPa | - | - | - | - |
| 1777573617 | 13.33° C | 56% | 1020.1 hPa | - | - | - | - |
| 1777572417 | 13.89° C | 55% | 1020 hPa | - | - | - | - |
| 1777571217 | 13.89° C | 53% | 1019.7 hPa | - | - | - | - |
| 1777570017 | 12.22° C | 63% | 1019.6 hPa | - | - | - | - |
| 1777568817 | 12.78° C | 58% | 1019.6 hPa | - | - | - | - |
| 1777567617 | 13.33° C | 55% | 1019.5 hPa | - | - | - | - |
| 1777566417 | 13.33° C | 56% | 1019.5 hPa | - | - | - | - |
| 1777565217 | 14.44° C | 51% | 1019.3 hPa | - | - | - | - |
| 1777564017 | 11.67° C | 63% | 1019.4 hPa | - | - | - | - |
| 1777562816 | 13.89° C | 52% | 1019.4 hPa | - | - | - | - |
| 1777561616 | 13.33° C | 54% | 1019.3 hPa | - | - | - | - |
| 1777560417 | 13.89° C | 52% | 1019.4 hPa | - | - | - | - |
* Rain since midnight (hover to see other rain measurements)
** Current wind speed in m/s (hover to see current wind gust speed)